Shrewsbury, MA (01545)

10:20 PM EDT on July 07, 2015 (GMT -0400)
Dean Park | | Change Station
CLOSE
Current Station
Personal Weather Station
Location: Shrewsbury, MA
Elevation: 459 ft
Nearby Weather Stations

Elev 459 ft 42.30 °N, 71.69 °W | Updated 1 second ago

Overcast
Overcast
75.2 °F
Feels Like 75 °F
N
0.0
Wind Variable Wind from ENE
Gusts 0.0 mph

Today
High -- | Low -- °F
--% Chance of Precip.
Yesterday
High -- | Low -- °F
Precip. -- in
5:17 AM 8:25 PM
Waning Gibbous, 59% visible
Pressure 29.97 in
Visibility 10.0 miles
Clouds Few 1000 ft
Overcast 11000 ft
Heat Index 75 °F
Dew Point 72 °F
Humidity 89%
Rainfall 0.00 in
Snow Depth Not available.
UV 0.0 out of 12
Pollen 3.90 out of 12
Air Quality Not available.
Flu Activity Not available.
METAR KORH 080154Z AUTO 22013KT 10SM FEW010 OVC110 23/20 A2998 RMK AO2 SLP148 T02330200

More Conditions Fewer Conditions

Pressure 29.97 in
Visibility 10.0 miles
Clouds Few 1000 ft
Overcast 11000 ft
Heat Index 75 °F
Dew Point 72 °F
Humidity 89%
Rainfall 0.00 in
Snow Depth Not available.
UV 0.0 out of 12
Pollen 3.90 out of 12
Air Quality Not available.
Flu Activity Not available.
METAR KORH 080154Z AUTO 22013KT 10SM FEW010 OVC110 23/20 A2998 RMK AO2 SLP148 T02330200

More Conditions Fewer Conditions

10-Day Weather Forecast

×

Almanac

Astronomy

Jul. 07, 2015 Rise Set
Actual Time
Civil Twilight
Nautical Twilight
Astronomical Twilight
Moon
Length of Visible Light
Length of Day
Tomorrow will be .
, % of the Moon is Illuminated

Today's Extremes

State Highs State Lows

Community

WunderPhotos

Upload Photos

1,836,013 photos uploaded!

WunderBlogs® & News

Nearby

Air Quality

  Air Quality AQ Index Pollutant
Not available.

Snow Depth

Station Depth Elevation

Earthquake Activity

City Distance Mag. Time & Date
Minimum magnitude displayed is 2.5.

Coastal Water Temperatures

Place Temperature

Stations

Nearby Weather Stations

Station Location Temp. Windchill Dew Point Humidity Wind Precip. Elev Updated Type